Etusivu
METAR-TAF:

METAR-TAF

Lentoasemat :

Linköping, Ruotsi

Sotilaslentoasema

Leveyspiiri: 58-24N, Pituuspiiri: 015-31E, korkeus merenpinnasta: 93 m

Tämänhetkinen sää

Tämä raportti tehtiin 39 minuuttia sitten, kello 13.50 UTC
Tuuli 5 kn idästä, vaihdellen koillisen ja kaakon välillä
Lämpötila 23°C
Kosteus 53%
Ilmanpaine 1003 hPa
Näkyvyys 10 km tai enemmän

METAR: ESCF 271350Z AUTO 09005KT 040V140 9999 FEW054/// BKN074/// OVC190/// 23/13 Q1003

Aika: 16:29 (14:29 UTC)


TAF: puuttuu

Säähavainnot ja -ennusteet yli 4000 lentoasemalta (METAR- ja TAF-raportit).

Käytössä olevat sääasemat on merkitty karttaan keltaisilla ja punaisilla pisteillä.

Aseta hiiri pisteen päälle nähdäksesi sääaseman nimen.

Klikkaa sitten nähdäksesi säähavainnot ja -ennusteet.

Kartan vaihtaminen: klikkaa mustalla rastilla varustettuja vihreitä pisteitä, niin voit zoomata sisään; viivalla varustettua vihreää pistettä, niin voit zoomata ulos tai vihreitä nuolia, niin pääset viereisille kartoille.


METAR-TAF: